Time;durP1;ratioP1;P1;durP2;ratioP2;P2;SDS_P1;SDS_P2;PMS_P1;PMS_P2;Temp;Humidity;BMP_temperature;BMP_pressure;BME280_temperature;BME280_humidity;BME280_pressure;Samples;Min_cycle;Max_cycle;Signal;HPM_P1;HPM_P2
2022/01/31 00:00:43;;;;;;;17.98;5.40;;;3.60;99.90;;;;;;2147226;66;20339;-72
2022/01/31 00:03:25;;;;;;;12.13;5.32;;;3.60;99.90;;;;;;2138393;67;20231;-72
2022/01/31 00:06:12;;;;;;;18.92;6.47;;;3.60;99.90;;;;;;2132408;67;20340;-72
2022/01/31 00:08:57;;;;;;;13.20;5.20;;;3.70;99.90;;;;;;2139969;67;20254;-73
2022/01/31 00:11:42;;;;;;;13.35;5.30;;;3.60;99.90;;;;;;2158004;66;20274;-72
2022/01/31 00:14:35;;;;;;;22.70;6.30;;;3.70;99.90;;;;;;2153384;66;20409;-72
2022/01/31 00:17:17;;;;;;;15.27;5.60;;;3.70;99.90;;;;;;2154510;66;20408;-72
2022/01/31 00:19:59;;;;;;;19.50;5.82;;;3.70;99.90;;;;;;2135801;66;20330;-71
2022/01/31 00:22:43;;;;;;;18.50;5.03;;;3.70;99.90;;;;;;2143365;66;20216;-73
2022/01/31 00:25:29;;;;;;;27.92;5.13;;;3.70;99.90;;;;;;2133758;67;20416;-71
2022/01/31 00:28:11;;;;;;;19.77;5.50;;;3.80;99.90;;;;;;2139075;66;20847;-72
2022/01/31 00:30:56;;;;;;;22.27;5.50;;;3.70;99.90;;;;;;2140792;66;20230;-72
2022/01/31 00:33:40;;;;;;;13.15;4.53;;;3.80;99.90;;;;;;2143304;66;20233;-72
2022/01/31 00:36:22;;;;;;;17.17;4.80;;;3.80;99.90;;;;;;2154510;66;20227;-72
2022/01/31 00:39:05;;;;;;;10.77;4.75;;;3.80;99.90;;;;;;2146862;66;20647;-73
2022/01/31 00:42:07;;;;;;;12.20;4.70;;;3.80;99.90;;;;;;2154189;66;20338;-72
2022/01/31 00:45:06;;;;;;;16.10;5.00;;;3.80;99.90;;;;;;2140000;66;20298;-71
2022/01/31 00:48:05;;;;;;;19.75;4.82;;;3.80;99.90;;;;;;2132826;67;20857;-71
2022/01/31 00:50:49;;;;;;;16.45;5.85;;;3.80;99.90;;;;;;2128328;67;20367;-72
2022/01/31 00:53:34;;;;;;;17.25;5.05;;;3.80;99.90;;;;;;2135633;67;20242;-72
2022/01/31 00:56:16;;;;;;;12.27;4.95;;;3.90;99.90;;;;;;2139948;67;20171;-73
2022/01/31 00:58:59;;;;;;;14.60;5.90;;;3.80;99.90;;;;;;2138025;67;20183;-72
2022/01/31 01:01:41;;;;;;;18.35;6.15;;;3.80;99.90;;;;;;2118118;67;20297;-72
2022/01/31 01:04:23;;;;;;;19.33;6.65;;;3.80;99.90;;;;;;2121253;67;20273;-71
2022/01/31 01:07:05;;;;;;;18.13;6.22;;;3.70;99.90;;;;;;2120200;67;20172;-71
2022/01/31 01:09:47;;;;;;;16.52;6.70;;;3.60;99.90;;;;;;2125454;67;20549;-72
2022/01/31 01:12:31;;;;;;;26.33;8.30;;;3.50;99.90;;;;;;2130179;67;20345;-71
2022/01/31 01:15:18;;;;;;;16.58;7.10;;;3.30;99.90;;;;;;2141591;66;20178;-71
2022/01/31 01:18:02;;;;;;;16.77;7.50;;;3.40;99.90;;;;;;2140412;66;20361;-72
2022/01/31 01:20:45;;;;;;;17.60;7.93;;;3.40;99.90;;;;;;2154713;66;20295;-72
2022/01/31 01:23:27;;;;;;;23.33;7.60;;;3.30;99.90;;;;;;2154782;66;20173;-72
2022/01/31 01:26:10;;;;;;;16.63;7.85;;;3.40;99.90;;;;;;2151430;66;20736;-71
2022/01/31 01:28:56;;;;;;;24.30;9.73;;;3.30;99.90;;;;;;2147936;66;20276;-71
2022/01/31 01:31:41;;;;;;;26.90;9.55;;;3.30;99.90;;;;;;2139614;67;21173;-71
2022/01/31 01:34:31;;;;;;;26.40;10.32;;;3.30;99.90;;;;;;2132391;67;20179;-71
2022/01/31 01:37:14;;;;;;;20.48;9.45;;;3.20;99.90;;;;;;2117227;67;20851;-71
2022/01/31 01:39:59;;;;;;;21.77;11.18;;;3.20;99.90;;;;;;2114270;67;20204;-71
2022/01/31 01:42:42;;;;;;;22.52;10.82;;;3.20;99.90;;;;;;2117561;67;20334;-71
2022/01/31 01:45:26;;;;;;;;;;;3.70;99.90;;;;;;2125575;67;20835;-70
2022/01/31 01:48:12;;;;;;;28.42;15.23;;;3.10;99.90;;;;;;2117843;67;20057;-70
2022/01/31 01:50:55;;;;;;;23.70;12.30;;;3.00;99.90;;;;;;2111890;67;20182;-71
2022/01/31 01:53:39;;;;;;;36.95;16.92;;;3.00;99.90;;;;;;2119807;67;20181;-70
2022/01/31 01:56:24;;;;;;;32.25;14.93;;;2.90;99.90;;;;;;2119574;67;20185;-71
2022/01/31 01:59:06;;;;;;;34.63;14.95;;;2.90;99.90;;;;;;2116594;67;20674;-70
2022/01/31 02:01:48;;;;;;;29.42;15.35;;;2.80;99.90;;;;;;2125537;67;20415;-72
2022/01/31 02:04:29;;;;;;;29.45;16.45;;;2.80;99.90;;;;;;2126060;67;20167;-70
2022/01/31 02:07:12;;;;;;;32.50;18.67;;;2.70;99.90;;;;;;2118026;67;20261;-72
2022/01/31 02:09:56;;;;;;;32.13;15.43;;;2.70;99.90;;;;;;2124821;67;20224;-72
2022/01/31 02:12:42;;;;;;;26.77;14.30;;;2.70;99.90;;;;;;2138831;67;20590;-70
2022/01/31 02:15:26;;;;;;;31.40;17.73;;;2.70;99.90;;;;;;2131487;67;20253;-71
2022/01/31 02:18:12;;;;;;;31.23;16.88;;;2.70;99.90;;;;;;2124746;67;20204;-71
2022/01/31 02:20:54;;;;;;;34.03;17.60;;;2.60;99.90;;;;;;2118215;67;20181;-71
2022/01/31 02:23:37;;;;;;;18.55;11.93;;;2.60;99.90;;;;;;2125112;67;20180;-68
2022/01/31 02:26:22;;;;;;;30.00;15.07;;;2.60;99.90;;;;;;2125359;67;20293;-70
2022/01/31 02:29:08;;;;;;;23.08;13.55;;;2.50;99.90;;;;;;2132221;67;20175;-69
2022/01/31 02:31:50;;;;;;;27.73;16.35;;;2.40;99.90;;;;;;2150480;66;20170;-71
2022/01/31 02:34:33;;;;;;;24.48;14.77;;;2.30;99.90;;;;;;2146077;66;20268;-70
2022/01/31 02:37:16;;;;;;;24.92;16.60;;;2.30;99.90;;;;;;2135191;66;20921;-71
2022/01/31 02:40:03;;;;;;;30.52;17.83;;;2.20;99.90;;;;;;2166706;66;20260;-71
2022/01/31 02:42:47;;;;;;;26.77;17.73;;;2.20;99.90;;;;;;2174372;65;20182;-70
2022/01/31 02:45:30;;;;;;;;;;;2.20;99.90;;;;;;2166544;65;20208;-71
2022/01/31 02:48:15;;;;;;;42.78;21.38;;;2.20;99.90;;;;;;2153602;66;20167;-72
2022/01/31 02:50:59;;;;;;;48.13;23.52;;;2.30;99.90;;;;;;2147488;66;20198;-72
2022/01/31 02:53:41;;;;;;;41.90;22.50;;;2.30;99.90;;;;;;2152059;66;20399;-71
2022/01/31 02:56:23;;;;;;;37.97;21.30;;;2.60;99.90;;;;;;2158859;66;20288;-71
2022/01/31 02:59:05;;;;;;;34.30;20.80;;;2.30;99.90;;;;;;2145679;66;20161;-72
2022/01/31 03:01:47;;;;;;;35.88;17.88;;;2.40;99.90;;;;;;2138664;66;20304;-72
2022/01/31 03:04:28;;;;;;;32.60;17.15;;;2.40;99.90;;;;;;2134627;67;20334;-71
2022/01/31 03:07:12;;;;;;;41.47;21.33;;;2.50;99.90;;;;;;2134427;66;20344;-72
2022/01/31 03:09:56;;;;;;;35.97;22.40;;;2.60;99.90;;;;;;2138362;66;20308;-71
2022/01/31 03:12:39;;;;;;;33.65;17.67;;;2.60;99.90;;;;;;2113759;67;20173;-71
2022/01/31 03:15:23;;;;;;;43.00;22.88;;;2.70;99.90;;;;;;2115759;67;20182;-71
2022/01/31 03:18:06;;;;;;;45.05;22.38;;;2.70;99.90;;;;;;2112731;67;20326;-71
2022/01/31 03:20:51;;;;;;;34.97;20.52;;;2.80;99.90;;;;;;2113305;67;20741;-71
2022/01/31 03:23:34;;;;;;;30.52;17.33;;;2.80;99.90;;;;;;2129863;67;20212;-71
2022/01/31 03:26:17;;;;;;;26.55;16.25;;;2.90;99.90;;;;;;2125384;67;20164;-71
2022/01/31 03:29:00;;;;;;;27.02;15.48;;;3.10;99.90;;;;;;2140382;66;20625;-71
2022/01/31 03:31:46;;;;;;;27.17;15.63;;;3.20;99.90;;;;;;2133405;67;20281;-71
2022/01/31 03:34:30;;;;;;;30.63;17.25;;;3.20;99.90;;;;;;2147493;66;20211;-71
2022/01/31 03:37:13;;;;;;;28.92;15.43;;;3.30;99.90;;;;;;2160343;66;20571;-71
2022/01/31 03:39:58;;;;;;;26.98;13.30;;;3.40;99.90;;;;;;2153585;66;20718;-71
2022/01/31 03:42:40;;;;;;;29.08;14.40;;;3.50;99.90;;;;;;2137999;66;20192;-70
2022/01/31 03:45:23;;;;;;;29.88;12.65;;;3.60;99.90;;;;;;2140316;66;20731;-71
2022/01/31 03:48:07;;;;;;;28.30;13.07;;;3.60;99.90;;;;;;2129252;67;20171;-72
2022/01/31 03:50:50;;;;;;;20.70;8.13;;;3.70;99.90;;;;;;2131922;67;20187;-69
2022/01/31 03:53:31;;;;;;;27.45;8.82;;;3.80;99.90;;;;;;2119058;67;20757;-72
2022/01/31 03:56:12;;;;;;;24.05;6.28;;;4.00;99.90;;;;;;2118955;67;20360;-71
2022/01/31 03:58:55;;;;;;;26.52;7.85;;;4.30;99.90;;;;;;2118233;67;20319;-71
2022/01/31 04:01:40;;;;;;;28.58;7.55;;;4.40;99.90;;;;;;2104700;68;20218;-71
2022/01/31 04:04:23;;;;;;;30.13;7.70;;;4.60;99.90;;;;;;2097562;68;20211;-71
2022/01/31 04:07:07;;;;;;;26.40;7.35;;;4.60;99.90;;;;;;2090779;68;20832;-71
2022/01/31 04:09:50;;;;;;;21.67;6.78;;;4.80;99.90;;;;;;2097575;68;20167;-71
2022/01/31 04:12:31;;;;;;;24.48;5.90;;;4.70;99.90;;;;;;2104603;67;20237;-72
2022/01/31 04:15:14;;;;;;;18.58;4.82;;;4.70;99.90;;;;;;2104664;68;20208;-70
2022/01/31 04:17:56;;;;;;;19.98;4.28;;;4.80;99.90;;;;;;2104488;67;20658;-71
2022/01/31 04:20:38;;;;;;;12.38;4.00;;;4.80;99.90;;;;;;2110829;67;20320;-69
2022/01/31 04:23:23;;;;;;;13.38;3.28;;;4.70;99.90;;;;;;2104738;67;20198;-70
2022/01/31 04:26:13;;;;;;;15.05;3.50;;;4.60;99.90;;;;;;2111375;67;20370;-71
2022/01/31 04:29:04;;;;;;;12.27;3.30;;;4.60;99.90;;;;;;2115967;67;20189;-71
2022/01/31 04:31:51;;;;;;;17.85;3.72;;;4.50;99.90;;;;;;2111405;67;20233;-71
2022/01/31 04:34:33;;;;;;;10.35;2.78;;;4.50;99.90;;;;;;2127293;67;20246;-71
2022/01/31 04:37:16;;;;;;;10.70;2.88;;;4.50;99.90;;;;;;2139245;66;20171;-71
2022/01/31 04:40:01;;;;;;;11.90;2.67;;;4.50;99.90;;;;;;2140043;66;20320;-71
2022/01/31 04:42:44;;;;;;;12.27;3.60;;;4.40;99.90;;;;;;2139151;67;20326;-70
2022/01/31 04:45:25;;;;;;;13.90;3.70;;;4.30;99.90;;;;;;2135453;67;20411;-71
2022/01/31 04:48:13;;;;;;;17.77;3.88;;;4.30;99.90;;;;;;2132370;67;20459;-71
2022/01/31 04:50:55;;;;;;;18.52;3.85;;;4.20;99.90;;;;;;2126726;66;20300;-71
2022/01/31 04:53:37;;;;;;;17.13;3.70;;;4.20;99.90;;;;;;2132195;67;20171;-70
2022/01/31 04:56:19;;;;;;;11.52;2.95;;;4.20;99.90;;;;;;2117782;67;20216;-71
2022/01/31 04:59:00;;;;;;;21.55;3.63;;;4.20;99.90;;;;;;2124485;67;20330;-71
2022/01/31 05:01:47;;;;;;;17.80;3.88;;;4.30;99.90;;;;;;2127487;67;20261;-70
2022/01/31 05:04:31;;;;;;;16.17;3.83;;;4.30;99.90;;;;;;2126872;67;20210;-70
2022/01/31 05:07:15;;;;;;;10.00;2.75;;;4.30;99.90;;;;;;2137748;67;20205;-71
2022/01/31 05:09:59;;;;;;;11.43;2.65;;;4.30;99.90;;;;;;2136938;67;20175;-71
2022/01/31 05:12:41;;;;;;;9.27;2.70;;;4.30;99.90;;;;;;2133434;66;20179;-71
2022/01/31 05:15:24;;;;;;;13.13;3.03;;;4.30;99.90;;;;;;2149841;66;20181;-72
2022/01/31 05:18:06;;;;;;;8.73;2.22;;;4.30;99.90;;;;;;2148152;66;20254;-71
2022/01/31 05:20:47;;;;;;;16.58;2.78;;;4.30;99.90;;;;;;2139876;67;20380;-71
2022/01/31 05:23:30;;;;;;;6.72;2.40;;;4.30;99.90;;;;;;2139445;67;20413;-72
2022/01/31 05:26:12;;;;;;;7.22;1.95;;;4.30;99.90;;;;;;2136828;66;20414;-71
2022/01/31 05:28:54;;;;;;;9.57;2.40;;;4.30;99.90;;;;;;2140001;66;20315;-71
2022/01/31 05:31:36;;;;;;;13.43;2.60;;;4.20;99.90;;;;;;2131879;67;20197;-71
2022/01/31 05:34:22;;;;;;;8.55;2.35;;;4.10;99.90;;;;;;2144872;66;20780;-71
2022/01/31 05:37:03;;;;;;;11.75;2.55;;;4.10;99.90;;;;;;2153654;66;20350;-70
2022/01/31 05:39:46;;;;;;;9.80;2.63;;;4.10;99.90;;;;;;2154101;66;20295;-71
2022/01/31 05:42:28;;;;;;;13.30;2.38;;;4.10;99.90;;;;;;2154074;66;20292;-71
2022/01/31 05:45:10;;;;;;;11.35;2.28;;;4.10;99.90;;;;;;2156692;66;20199;-72
2022/01/31 05:47:52;;;;;;;8.93;2.20;;;4.00;99.90;;;;;;2161394;66;20735;-71
2022/01/31 05:50:35;;;;;;;11.68;2.15;;;4.00;99.90;;;;;;2159262;66;20173;-70
2022/01/31 05:53:17;;;;;;;9.48;2.13;;;4.00;99.90;;;;;;2155661;66;20399;-72
2022/01/31 05:55:59;;;;;;;16.08;2.67;;;4.00;99.90;;;;;;2161980;66;20251;-71
2022/01/31 05:58:42;;;;;;;8.05;2.08;;;4.10;99.90;;;;;;2153940;66;20399;-71
2022/01/31 06:01:24;;;;;;;9.77;2.55;;;4.10;99.90;;;;;;2153996;66;20166;-71
2022/01/31 06:04:25;;;;;;;6.60;2.40;;;4.10;99.90;;;;;;2153970;66;20321;-71
2022/01/31 06:07:10;;;;;;;12.98;2.15;;;4.40;99.90;;;;;;2147563;66;20371;-72
2022/01/31 06:09:52;;;;;;;13.45;2.88;;;4.20;99.90;;;;;;2151093;66;20382;-72
2022/01/31 06:12:37;;;;;;;7.57;2.50;;;4.20;99.90;;;;;;2144338;66;20306;-71
2022/01/31 06:15:20;;;;;;;13.13;2.38;;;4.20;99.90;;;;;;2141097;66;20687;-71
2022/01/31 06:18:08;;;;;;;10.48;2.40;;;4.20;99.90;;;;;;2127022;67;20849;-72
2022/01/31 06:20:50;;;;;;;12.65;2.50;;;4.20;99.90;;;;;;2135811;66;20203;-71
2022/01/31 06:23:36;;;;;;;11.13;2.95;;;4.20;99.90;;;;;;2138984;66;20312;-71
2022/01/31 06:26:20;;;;;;;11.85;2.88;;;4.20;99.90;;;;;;2137943;67;20444;-72
2022/01/31 06:29:05;;;;;;;12.35;2.35;;;4.30;99.90;;;;;;2131192;67;20743;-71
2022/01/31 06:31:47;;;;;;;9.43;2.45;;;4.30;99.90;;;;;;2138120;67;20237;-71
2022/01/31 06:34:28;;;;;;;10.57;2.30;;;4.30;99.90;;;;;;2117290;67;20296;-71
2022/01/31 06:37:11;;;;;;;13.90;2.78;;;4.30;99.90;;;;;;2117406;67;20330;-71
2022/01/31 06:39:56;;;;;;;11.40;2.67;;;4.30;99.90;;;;;;2102901;67;20194;-72
2022/01/31 06:42:41;;;;;;;13.03;2.37;;;4.30;99.90;;;;;;2098450;67;20398;-72
2022/01/31 06:45:26;;;;;;;9.57;2.85;;;4.40;99.90;;;;;;2129945;67;20259;-71
2022/01/31 06:48:08;;;;;;;18.23;2.72;;;4.30;99.90;;;;;;2132206;67;20216;-71
2022/01/31 06:50:50;;;;;;;7.63;2.78;;;4.30;99.90;;;;;;2110326;67;20197;-72
2022/01/31 06:53:32;;;;;;;9.45;2.22;;;4.40;99.90;;;;;;2114068;67;20201;-72
2022/01/31 06:56:18;;;;;;;8.07;2.22;;;4.40;99.90;;;;;;2131501;67;20188;-72
2022/01/31 06:59:04;;;;;;;12.93;2.47;;;4.40;99.90;;;;;;2145349;66;20222;-70
2022/01/31 07:01:46;;;;;;;8.30;2.20;;;4.40;99.90;;;;;;2145344;66;20297;-72
2022/01/31 07:04:28;;;;;;;13.52;2.22;;;4.50;99.90;;;;;;2144849;66;20408;-71
2022/01/31 07:07:11;;;;;;;8.10;1.80;;;4.50;99.90;;;;;;2152370;66;20322;-73
2022/01/31 07:09:56;;;;;;;16.42;4.03;;;4.50;99.90;;;;;;2145044;66;20250;-72
2022/01/31 07:12:48;;;;;;;7.43;1.92;;;4.50;99.90;;;;;;2136798;66;20194;-73
2022/01/31 07:15:30;;;;;;;8.07;1.90;;;4.60;99.90;;;;;;2131439;66;20533;-74
2022/01/31 07:18:13;;;;;;;11.75;2.03;;;4.70;99.90;;;;;;2137110;66;20261;-73
2022/01/31 07:20:58;;;;;;;11.30;3.08;;;4.60;99.90;;;;;;2145673;66;20266;-74
2022/01/31 07:26:33;;;;;;;12.27;2.65;;;4.60;99.90;;;;;;2131840;67;20336;-83
2022/01/31 07:29:17;;;;;;;8.35;2.45;;;4.60;99.90;;;;;;2132235;67;20195;-74
2022/01/31 07:32:01;;;;;;;9.48;2.80;;;4.60;99.90;;;;;;2124662;67;20414;-76
2022/01/31 07:34:46;;;;;;;11.63;2.65;;;4.60;99.90;;;;;;2116912;67;20278;-74
2022/01/31 07:37:28;;;;;;;9.05;2.50;;;4.60;99.90;;;;;;2129384;67;20743;-76
2022/01/31 07:40:13;;;;;;;9.75;3.00;;;4.60;99.90;;;;;;2117000;67;20201;-74
2022/01/31 07:42:54;;;;;;;10.55;2.25;;;4.60;99.90;;;;;;2116660;67;20573;-73
2022/01/31 07:45:40;;;;;;;10.10;2.22;;;4.50;99.90;;;;;;2105059;67;20200;-74
2022/01/31 07:48:29;;;;;;;10.50;2.88;;;4.60;99.90;;;;;;2118247;67;20629;-73
2022/01/31 07:51:11;;;;;;;15.35;3.47;;;4.50;99.90;;;;;;2123103;67;20280;-71
2022/01/31 07:53:59;;;;;;;9.15;2.20;;;4.50;99.90;;;;;;2116951;67;20602;-74
2022/01/31 07:56:48;;;;;;;10.27;3.13;;;4.40;99.90;;;;;;2116686;67;20271;-72
2022/01/31 07:59:34;;;;;;;9.38;2.58;;;4.30;99.90;;;;;;2104377;67;20246;-73
2022/01/31 08:02:16;;;;;;;10.15;2.72;;;4.30;99.90;;;;;;2109633;67;20431;-73
2022/01/31 08:04:58;;;;;;;9.45;2.17;;;4.20;99.90;;;;;;2111263;67;20715;-74
2022/01/31 08:07:45;;;;;;;10.85;2.13;;;4.40;99.90;;;;;;2124786;67;20243;-74
2022/01/31 08:10:28;;;;;;;8.23;2.13;;;4.10;99.90;;;;;;2131438;67;20719;-74
2022/01/31 08:13:11;;;;;;;7.55;1.55;;;4.10;99.90;;;;;;2129562;67;20185;-75
2022/01/31 08:16:09;;;;;;;9.90;2.13;;;4.10;99.90;;;;;;2132523;67;20175;-75
2022/01/31 08:18:54;;;;;;;7.35;1.83;;;4.40;99.90;;;;;;2134931;67;20179;-71
2022/01/31 08:21:40;;;;;;;6.93;1.90;;;4.20;99.90;;;;;;2138096;66;20376;-70
2022/01/31 08:24:30;;;;;;;8.73;2.53;;;4.30;99.90;;;;;;2141399;66;20261;-75
2022/01/31 08:27:17;;;;;;;9.85;3.05;;;4.40;99.90;;;;;;2132244;67;20180;-74
2022/01/31 08:30:07;;;;;;;5.78;2.63;;;5.30;99.90;;;;;;2142555;66;20350;-74
2022/01/31 08:32:59;;;;;;;10.50;2.45;;;4.60;99.90;;;;;;2146684;66;20209;-73
2022/01/31 08:35:48;;;;;;;10.40;2.22;;;4.70;99.90;;;;;;2134577;67;20363;-72
2022/01/31 08:38:31;;;;;;;8.43;2.42;;;4.70;99.90;;;;;;2118043;67;20336;-73
2022/01/31 08:41:17;;;;;;;6.03;2.08;;;4.80;99.90;;;;;;2115033;67;20678;-72
2022/01/31 08:43:59;;;;;;;13.02;2.50;;;4.90;99.90;;;;;;2122632;67;20448;-73
2022/01/31 08:46:42;;;;;;;7.57;2.03;;;4.80;99.90;;;;;;2114264;67;20228;-73
2022/01/31 08:49:27;;;;;;;10.07;2.38;;;4.80;99.90;;;;;;2112153;67;20269;-73
2022/01/31 08:52:08;;;;;;;10.38;2.80;;;4.90;99.90;;;;;;2099961;67;20651;-72
2022/01/31 08:54:51;;;;;;;8.20;2.35;;;5.00;99.90;;;;;;2097136;68;20208;-74
2022/01/31 08:57:33;;;;;;;10.30;2.10;;;5.10;99.90;;;;;;2096659;68;20275;-74
2022/01/31 09:00:17;;;;;;;9.88;2.17;;;5.10;99.90;;;;;;2097773;68;20246;-72
2022/01/31 09:05:52;;;;;;;8.43;1.80;;;4.90;99.90;;;;;;2104994;67;20201;-74
2022/01/31 09:08:34;;;;;;;7.70;2.33;;;4.90;99.90;;;;;;2112130;67;20357;-74
2022/01/31 09:11:18;;;;;;;10.35;1.85;;;5.00;99.90;;;;;;2138791;66;20203;-72
2022/01/31 09:14:03;;;;;;;14.73;2.83;;;5.10;99.90;;;;;;2111292;67;20332;-74
2022/01/31 09:16:45;;;;;;;10.05;2.15;;;5.50;99.90;;;;;;2126462;67;20274;-74
2022/01/31 09:19:28;;;;;;;12.23;2.47;;;5.40;99.90;;;;;;2125155;67;20172;-74
2022/01/31 09:22:10;;;;;;;7.75;1.67;;;5.40;99.90;;;;;;2118470;67;20205;-76
2022/01/31 09:24:54;;;;;;;6.38;1.77;;;5.50;99.90;;;;;;2116549;67;20232;-74
2022/01/31 09:27:40;;;;;;;10.43;1.85;;;5.60;99.90;;;;;;2118057;67;20252;-73
2022/01/31 09:30:26;;;;;;;6.63;1.40;;;5.60;99.90;;;;;;2123603;67;20172;-73
2022/01/31 09:33:10;;;;;;;8.82;2.75;;;5.70;99.90;;;;;;2108430;67;20746;-74
2022/01/31 09:35:54;;;;;;;6.93;1.13;;;5.70;99.90;;;;;;2110263;67;20299;-72
2022/01/31 09:38:41;;;;;;;4.97;1.35;;;5.60;99.90;;;;;;2116909;67;20747;-73
2022/01/31 09:41:45;;;;;;;4.28;1.35;;;5.50;99.90;;;;;;2107242;67;20551;-73
2022/01/31 09:47:34;;;;;;;7.80;1.63;;;4.90;99.90;;;;;;2118298;67;20273;-74
2022/01/31 09:50:18;;;;;;;8.52;2.28;;;5.40;99.90;;;;;;2111977;67;20925;-73
2022/01/31 09:53:02;;;;;;;;;;;5.50;99.90;;;;;;2113777;67;20200;-73
2022/01/31 09:55:48;;;;;;;5.30;1.63;;;5.50;99.90;;;;;;2127277;67;20068;-76
2022/01/31 09:58:34;;;;;;;6.90;1.70;;;5.50;99.90;;;;;;2129873;67;20674;-72
2022/01/31 10:01:24;;;;;;;7.82;1.80;;;5.50;99.90;;;;;;2123416;67;20212;-74
2022/01/31 10:04:36;;;;;;;11.30;3.10;;;5.50;99.90;;;;;;2122268;67;20303;-74
2022/01/31 10:07:21;;;;;;;10.70;1.83;;;5.50;99.90;;;;;;2123798;67;20176;-76
2022/01/31 10:10:17;;;;;;;11.93;1.85;;;5.50;99.90;;;;;;2125814;67;20176;-72
2022/01/31 10:19:12;;;;;;;7.68;1.88;;;5.80;99.90;;;;;;2121710;67;20362;-73
2022/01/31 10:22:03;;;;;;;13.38;3.20;;;5.90;99.90;;;;;;2124508;67;20263;-74
2022/01/31 10:24:48;;;;;;;11.00;2.30;;;6.10;99.90;;;;;;2121244;67;20355;-75
2022/01/31 10:27:34;;;;;;;8.48;2.20;;;6.30;99.90;;;;;;2117307;67;20402;-75
2022/01/31 10:30:23;;;;;;;7.78;2.30;;;6.60;99.90;;;;;;2117562;67;20735;-75
2022/01/31 10:33:08;;;;;;;11.45;2.35;;;6.70;99.90;;;;;;2128657;67;20737;-74
2022/01/31 10:35:50;;;;;;;13.27;2.58;;;6.80;99.90;;;;;;2126803;67;20355;-77
2022/01/31 10:38:37;;;;;;;14.90;2.30;;;6.80;99.90;;;;;;2130475;67;20324;-74
2022/01/31 10:51:19;;;;;;;13.20;2.20;;;6.80;99.90;;;;;;2110661;67;20634;-74
2022/01/31 10:54:07;;;;;;;8.90;2.30;;;6.70;99.90;;;;;;2107625;67;20311;-74
2022/01/31 10:57:17;;;;;;;5.70;2.03;;;6.60;99.90;;;;;;2098421;68;20320;-73
2022/01/31 11:00:02;;;;;;;9.52;2.05;;;6.60;99.90;;;;;;2097635;68;20278;-73
2022/01/31 11:02:46;;;;;;;5.93;2.10;;;6.60;99.90;;;;;;2113972;67;20268;-73
2022/01/31 11:06:01;;;;;;;14.77;2.00;;;6.60;99.90;;;;;;2113081;67;20184;-74
2022/01/31 11:08:43;;;;;;;5.55;1.42;;;6.60;99.90;;;;;;2119391;67;20199;-76
2022/01/31 11:11:25;;;;;;;5.68;1.83;;;6.70;99.90;;;;;;2125914;67;20199;-75
2022/01/31 11:14:15;;;;;;;9.80;2.03;;;6.70;99.90;;;;;;2110966;67;20310;-74
2022/01/31 11:17:10;;;;;;;9.50;2.55;;;6.80;99.90;;;;;;2110541;67;20297;-73
2022/01/31 11:19:57;;;;;;;12.73;5.05;;;6.90;99.90;;;;;;2109848;67;20288;-72
2022/01/31 11:22:42;;;;;;;12.10;2.63;;;7.10;99.90;;;;;;2116659;67;20430;-74
2022/01/31 11:25:29;;;;;;;18.30;2.92;;;7.20;99.90;;;;;;2102504;68;20249;-73
2022/01/31 11:28:16;;;;;;;12.68;2.90;;;7.30;99.90;;;;;;2090117;68;20175;-73
2022/01/31 11:30:57;;;;;;;16.92;3.17;;;7.40;99.90;;;;;;2093523;68;20179;-73
2022/01/31 11:33:43;;;;;;;9.88;2.33;;;7.60;99.90;;;;;;2095956;68;20349;-74
2022/01/31 11:36:26;;;;;;;11.38;2.45;;;7.80;99.90;;;;;;2100444;67;20202;-73
2022/01/31 11:39:13;;;;;;;10.75;2.45;;;8.10;99.90;;;;;;2112518;67;20371;-72
2022/01/31 11:42:00;;;;;;;12.60;2.38;;;8.30;99.90;;;;;;2110594;67;20234;-73
2022/01/31 11:44:50;;;;;;;11.00;2.13;;;8.40;99.90;;;;;;2114280;67;20199;-73
2022/01/31 11:47:36;;;;;;;11.43;2.65;;;8.40;99.90;;;;;;2118598;67;20201;-73
2022/01/31 11:50:24;;;;;;;12.57;3.42;;;8.50;99.90;;;;;;2124669;67;20287;-74
2022/01/31 11:53:06;;;;;;;12.90;2.90;;;8.60;99.90;;;;;;2131552;66;20279;-76
2022/01/31 11:55:50;;;;;;;11.57;2.80;;;8.90;99.90;;;;;;2126272;67;20187;-76
2022/01/31 11:58:37;;;;;;;10.80;2.78;;;9.00;99.90;;;;;;2111135;67;20996;-76
2022/01/31 12:01:24;;;;;;;11.32;2.70;;;9.00;99.90;;;;;;2111023;67;20236;-77
2022/01/31 12:04:13;;;;;;;10.43;3.08;;;8.90;99.90;;;;;;2100351;67;20268;-78
2022/01/31 12:06:55;;;;;;;;;;;8.80;99.90;;;;;;2110074;67;20674;-75
2022/01/31 12:09:44;;;;;;;12.93;2.67;;;8.80;99.90;;;;;;2119309;67;20533;-77
2022/01/31 12:12:48;;;;;;;12.35;2.80;;;8.70;99.90;;;;;;2124915;67;20318;-77
2022/01/31 12:24:38;;;;;;;13.38;2.85;;;9.20;99.90;;;;;;2099026;68;20211;-76
2022/01/31 12:27:27;;;;;;;13.80;3.85;;;9.30;99.90;;;;;;2114228;67;20343;-75
2022/01/31 12:30:11;;;;;;;15.40;3.72;;;9.10;99.90;;;;;;2115053;67;20689;-79
2022/01/31 12:32:53;;;;;;;12.27;2.88;;;9.20;99.90;;;;;;2137984;66;20250;-74
2022/01/31 12:35:39;;;;;;;9.73;3.03;;;9.40;99.90;;;;;;2145576;66;20580;-76
2022/01/31 12:38:33;;;;;;;9.93;2.70;;;9.50;99.90;;;;;;2143855;66;20179;-75
2022/01/31 12:41:45;;;;;;;12.35;3.15;;;9.70;99.90;;;;;;2132716;67;20691;-75
2022/01/31 12:44:31;;;;;;;16.52;3.03;;;9.70;99.90;;;;;;2120414;67;20260;-74
2022/01/31 12:47:19;;;;;;;10.68;3.70;;;9.70;99.90;;;;;;2128802;67;20760;-75
2022/01/31 12:50:25;;;;;;;19.02;3.67;;;9.80;99.90;;;;;;2122968;67;20360;-76
2022/01/31 12:53:39;;;;;;;16.67;3.72;;;9.70;99.90;;;;;;2137603;66;20209;-77
2022/01/31 12:56:29;;;;;;;14.88;2.65;;;9.60;99.90;;;;;;2133831;67;20196;-76
2022/01/31 12:59:17;;;;;;;14.52;3.50;;;9.50;99.90;;;;;;2126759;66;20180;-77
2022/01/31 13:02:06;;;;;;;11.43;2.80;;;9.50;99.90;;;;;;2124965;67;20350;-74
2022/01/31 13:04:50;;;;;;;13.45;2.88;;;9.40;99.90;;;;;;2130453;67;20772;-76
2022/01/31 13:07:32;;;;;;;14.00;3.30;;;9.30;99.90;;;;;;2113089;67;20346;-76
2022/01/31 13:10:15;;;;;;;13.15;3.20;;;9.10;99.90;;;;;;2124817;67;20365;-76
2022/01/31 13:13:01;;;;;;;11.98;2.90;;;8.90;99.90;;;;;;2119623;67;20741;-77
2022/01/31 13:15:48;;;;;;;15.13;4.47;;;8.90;99.90;;;;;;2114777;67;20845;-76
2022/01/31 13:18:39;;;;;;;14.95;4.00;;;8.80;99.90;;;;;;2110876;67;20312;-74
2022/01/31 13:21:25;;;;;;;12.82;3.20;;;8.70;99.90;;;;;;2115060;67;20229;-74
2022/01/31 13:24:10;;;;;;;16.23;3.35;;;8.60;99.90;;;;;;2123326;67;20294;-74
2022/01/31 13:26:54;;;;;;;18.67;3.55;;;8.60;99.90;;;;;;2111793;67;20229;-74
2022/01/31 13:29:43;;;;;;;17.45;4.75;;;8.60;99.90;;;;;;2110646;67;20275;-77
2022/01/31 13:32:29;;;;;;;15.40;3.83;;;8.60;99.90;;;;;;2103260;67;20352;-74
2022/01/31 13:35:20;;;;;;;14.57;4.72;;;8.60;99.90;;;;;;2105150;67;20332;-75
2022/01/31 13:38:07;;;;;;;13.77;4.53;;;8.70;99.90;;;;;;2109419;67;20234;-75
2022/01/31 13:40:52;;;;;;;11.98;3.60;;;8.60;99.90;;;;;;2102904;67;20318;-75
2022/01/31 13:43:39;;;;;;;12.10;2.83;;;8.60;99.90;;;;;;2112089;67;20206;-77
2022/01/31 13:46:29;;;;;;;11.18;3.15;;;8.60;99.90;;;;;;2116117;67;20165;-78
2022/01/31 13:49:18;;;;;;;15.93;3.90;;;8.50;99.90;;;;;;2126361;67;20801;-79
2022/01/31 13:52:01;;;;;;;13.10;3.38;;;8.40;99.90;;;;;;2121588;67;20370;-79
2022/01/31 13:54:46;;;;;;;15.05;3.30;;;8.40;99.90;;;;;;2118552;67;20209;-78
2022/01/31 13:57:29;;;;;;;12.48;3.17;;;8.40;99.90;;;;;;2119049;67;20806;-79
2022/01/31 14:00:11;;;;;;;14.98;3.67;;;8.40;99.90;;;;;;2139064;66;20259;-71
2022/01/31 14:03:19;;;;;;;13.38;3.85;;;8.30;99.90;;;;;;2146328;66;20718;-74
2022/01/31 14:06:10;;;;;;;12.45;3.03;;;8.30;99.90;;;;;;2136413;66;20257;-73
2022/01/31 14:09:02;;;;;;;13.45;3.05;;;8.40;99.90;;;;;;2144461;66;20236;-71
2022/01/31 14:11:47;;;;;;;12.05;3.28;;;8.40;99.90;;;;;;2153561;66;20412;-71
2022/01/31 14:14:30;;;;;;;12.10;3.22;;;8.50;99.90;;;;;;2169429;65;20206;-70
2022/01/31 14:17:13;;;;;;;11.50;3.28;;;8.50;99.90;;;;;;2171996;65;20241;-70
2022/01/31 14:19:58;;;;;;;12.73;2.50;;;8.40;99.90;;;;;;2175137;65;20722;-70
2022/01/31 14:22:41;;;;;;;2.35;1.02;;;8.30;99.90;;;;;;2170861;65;20325;-70
2022/01/31 14:25:23;;;;;;;5.63;1.10;;;8.10;99.90;;;;;;2169398;65;20201;-71
2022/01/31 14:28:05;;;;;;;5.10;1.73;;;7.90;99.90;;;;;;2184499;65;20357;-71
2022/01/31 14:30:54;;;;;;;10.50;1.75;;;7.80;99.90;;;;;;2159615;66;20289;-71
2022/01/31 14:33:47;;;;;;;11.45;1.98;;;7.70;99.90;;;;;;2150453;66;20217;-76
2022/01/31 14:36:35;;;;;;;10.40;3.25;;;7.70;99.90;;;;;;2142948;66;20195;-74
2022/01/31 14:39:36;;;;;;;14.40;2.53;;;7.60;99.90;;;;;;2138783;66;20239;-77
2022/01/31 14:48:21;;;;;;;12.02;3.72;;;7.50;99.90;;;;;;2145819;66;20203;-72
2022/01/31 14:51:03;;;;;;;14.98;4.05;;;7.50;99.90;;;;;;2144607;66;20825;-75
2022/01/31 14:53:54;;;;;;;9.02;3.92;;;7.50;99.90;;;;;;2141069;66;20241;-75
2022/01/31 14:56:38;;;;;;;11.73;4.60;;;7.60;99.90;;;;;;2145532;66;20238;-74
2022/01/31 14:59:23;;;;;;;15.30;6.43;;;7.50;99.90;;;;;;2147258;66;20182;-74
2022/01/31 15:02:07;;;;;;;12.82;6.43;;;7.50;99.90;;;;;;2140291;66;20367;-77